logo
Search for airport 
image banner adimage banner adimage banner ad
image banner ad

FAWEPE - Wepener

Located in , South Africa

ICAO - , IATA -

Data provided by Airmate  

General information

Coordinates: S29°44'31" E27°1'23"
Elevation is 4753 feet MSL.
 
View others Airports in Free State

Operational data

Special qualification required
Current time UTC:
Current local time:
Weather at : FXMM - Maseru/Moshoeshoe I Intl ( 61 km )
TAF: TAF FXMM 180400Z 1806/1906 10005KT 9999 FEW040 TX21/1813Z TN10/1903Z BECMG 1809/1811 22010KT 9999 SCT035 BECMG 1815/1817 30005KT CAVOK
View NOTAMs / SUP AIP / TFR affecting this airport [VIEW]
Communications frequencies: [VIEW]

Runways:

RWY identifierQFULength (ft)Width (ft)SurfaceLDA (ft)
0629°269066GRASS
24209°269066GRASS
0968°269066GRASS
27248°269066GRASS

Airport contact information

Address: South Africa

Satellite view of FAWEPE